Time;durP1;ratioP1;P1;durP2;ratioP2;P2;SDS_P1;SDS_P2;PMS_P1;PMS_P2;Temp;Humidity;BMP_temperature;BMP_pressure;BME280_temperature;BME280_humidity;BME280_pressure;Samples;Min_cycle;Max_cycle;Signal;HPM_P1;HPM_P2
2022/05/29 00:01:33;;;;;;;14.73;6.20;;;;;;;18.75;95.65;94497.88;5029794;28;20175;-80
2022/05/29 00:03:58;;;;;;;16.50;7.03;;;;;;;18.73;95.93;94486.66;5011986;28;20188;-79
2022/05/29 00:06:24;;;;;;;13.93;6.40;;;;;;;18.74;95.73;94437.59;5018536;28;20187;-80
2022/05/29 00:08:49;;;;;;;14.23;6.20;;;;;;;18.64;95.22;94409.09;5021585;28;20179;-80
2022/05/29 00:11:15;;;;;;;19.88;8.93;;;;;;;18.60;94.88;94417.91;5031322;28;20245;-79
2022/05/29 00:13:44;;;;;;;18.77;7.00;;;;;;;18.69;95.38;94445.59;5022883;28;20186;-79
2022/05/29 00:16:09;;;;;;;15.27;6.60;;;;;;;18.58;95.02;94441.38;5018387;28;20177;-80
2022/05/29 00:18:36;;;;;;;12.73;5.65;;;;;;;18.44;95.39;94449.09;5024817;28;20206;-80
2022/05/29 00:21:02;;;;;;;12.77;6.65;;;;;;;18.33;96.44;94435.00;5031716;28;20179;-79
2022/05/29 00:23:28;;;;;;;18.35;7.22;;;;;;;18.40;96.34;94451.50;5032100;28;20570;-80
2022/05/29 00:25:54;;;;;;;13.63;6.80;;;;;;;18.40;96.56;94442.72;5032077;28;20695;-81
2022/05/29 00:28:20;;;;;;;12.50;6.25;;;;;;;18.28;96.73;94412.88;5032106;28;20164;-80
2022/05/29 00:30:46;;;;;;;14.15;5.93;;;;;;;17.95;97.69;94395.59;5031880;28;20192;-80
2022/05/29 00:33:12;;;;;;;15.25;7.10;;;;;;;17.95;98.79;94401.75;5031926;28;20180;-80
2022/05/29 00:35:39;;;;;;;19.60;7.18;;;;;;;17.75;99.39;94380.44;5031593;28;20180;-80
2022/05/29 00:38:05;;;;;;;19.70;7.10;;;;;;;17.81;99.81;94384.72;5031835;28;20194;-81
2022/05/29 00:40:53;;;;;;;12.13;7.40;;;;;;;17.88;99.71;94387.09;5031826;28;20179;-82
2022/05/29 00:43:19;;;;;;;17.10;7.03;;;;;;;17.76;100.00;94355.41;5023923;28;20187;-81
2022/05/29 00:45:51;;;;;;;19.30;7.90;;;;;;;17.98;100.00;94342.63;5031511;28;20560;-81
2022/05/29 00:48:19;;;;;;;19.77;7.72;;;;;;;17.94;99.74;94298.94;5014295;28;20199;-81
2022/05/29 00:50:47;;;;;;;12.73;6.95;;;;;;;17.70;99.25;94287.25;5023060;28;20203;-80
2022/05/29 00:53:14;;;;;;;19.35;7.45;;;;;;;17.91;99.88;94387.34;5014085;28;20180;-80
2022/05/29 00:55:42;;;;;;;16.73;9.20;;;;;;;17.95;99.95;94428.38;5031978;28;20178;-81
2022/05/29 00:58:08;;;;;;;16.55;7.53;;;;;;;17.89;100.00;94396.69;5031443;28;20221;-80
2022/05/29 01:00:34;;;;;;;15.05;8.13;;;;;;;17.90;100.00;94366.34;5034960;28;20180;-80
2022/05/29 01:03:02;;;;;;;21.48;9.25;;;;;;;17.64;100.00;94305.09;5035688;28;20654;-80
2022/05/29 01:05:30;;;;;;;16.95;8.80;;;;;;;17.91;99.46;94351.91;5035684;28;20182;-80
2022/05/29 01:08:12;;;;;;;17.00;8.43;;;;;;;17.51;99.57;94292.31;5035654;28;20182;-80
2022/05/29 01:10:54;;;;;;;13.30;7.70;;;;;;;17.78;100.00;94329.31;5035645;28;20167;-81
2022/05/29 01:13:29;;;;;;;18.45;7.60;;;;;;;17.74;100.00;94346.88;5036123;28;20195;-80
2022/05/29 01:16:29;;;;;;;17.77;7.78;;;;;;;17.63;100.00;94366.59;5035701;28;20690;-80
2022/05/29 01:19:10;;;;;;;13.70;8.35;;;;;;;17.50;100.00;94287.25;5035558;28;20192;-80
2022/05/29 01:21:50;;;;;;;15.77;7.50;;;;;;;17.89;99.92;94348.75;5035320;28;20651;-81
2022/05/29 01:24:28;;;;;;;15.05;7.88;;;;;;;17.82;99.87;94359.66;5035902;28;20184;-80
2022/05/29 01:26:58;;;;;;;15.18;7.65;;;;;;;17.86;100.00;94360.72;5035195;28;20258;-80
2022/05/29 01:29:53;;;;;;;21.17;8.35;;;;;;;17.80;99.76;94334.38;5035928;28;20187;-80
2022/05/29 01:32:37;;;;;;;12.90;6.65;;;;;;;17.89;97.80;94338.09;5035588;28;20156;-80
2022/05/29 01:35:11;;;;;;;12.10;5.93;;;;;;;17.79;96.49;94328.25;5035551;28;20164;-80
2022/05/29 01:37:53;;;;;;;20.52;6.97;;;;;;;17.21;97.17;94269.16;5017424;28;20172;-80
2022/05/29 01:40:24;;;;;;;11.82;6.10;;;;;;;17.60;97.39;94325.31;5035328;28;20188;-80
2022/05/29 01:43:10;;;;;;;14.45;5.65;;;;;;;17.62;97.89;94333.88;5035079;28;20170;-81
2022/05/29 01:45:56;;;;;;;21.15;10.18;;;;;;;17.70;98.50;94340.50;5017350;28;20265;-81
2022/05/29 01:48:36;;;;;;;16.65;7.90;;;;;;;17.56;98.54;94315.44;5035131;28;20603;-80
2022/05/29 01:51:11;;;;;;;17.77;7.15;;;;;;;17.82;99.13;94338.34;5034985;28;20661;-81
2022/05/29 01:53:41;;;;;;;13.18;6.85;;;;;;;17.72;98.89;94322.41;5034903;28;20246;-80
2022/05/29 01:56:38;;;;;;;11.55;7.00;;;;;;;17.75;98.33;94326.38;5034882;28;20388;-81
2022/05/29 01:59:21;;;;;;;11.98;6.88;;;;;;;17.82;98.87;94310.91;5016984;28;20265;-81
2022/05/29 02:02:01;;;;;;;23.15;11.45;;;;;;;17.51;98.73;94263.03;5035031;28;20278;-81
2022/05/29 02:04:29;;;;;;;20.95;11.93;;;;;;;17.89;98.75;94309.59;5016901;28;20241;-81
2022/05/29 02:09:52;;;;;;;12.65;8.02;;;;;;;17.94;98.20;94282.94;5029340;28;20214;-80
2022/05/29 02:12:23;;;;;;;18.00;9.85;;;;;;;18.06;98.06;94301.31;5015815;28;20171;-81
2022/05/29 02:15:02;;;;;;;21.25;11.77;;;;;;;18.00;97.71;94286.38;5033946;28;20171;-81
2022/05/29 02:17:34;;;;;;;16.90;8.52;;;;;;;18.13;97.44;94309.00;5033460;28;20588;-81
2022/05/29 02:20:16;;;;;;;11.35;7.47;;;;;;;17.83;97.56;94252.06;5033293;28;20203;-81
2022/05/29 02:22:45;;;;;;;14.02;7.88;;;;;;;18.18;97.50;94291.13;5033006;28;20179;-80
2022/05/29 02:25:22;;;;;;;13.68;6.03;;;;;;;18.25;96.78;94294.28;5033394;28;20273;-79
2022/05/29 02:27:59;;;;;;;12.73;6.35;;;;;;;18.21;93.98;94287.94;5034011;28;20710;-79
2022/05/29 02:30:35;;;;;;;12.32;5.82;;;;;;;18.05;94.77;94284.53;5034161;28;20206;-80
2022/05/29 02:33:12;;;;;;;14.82;7.22;;;;;;;17.91;94.87;94261.38;5033968;28;20964;-80
2022/05/29 02:35:47;;;;;;;13.55;5.65;;;;;;;18.02;94.53;94284.25;5033926;28;20631;-80
2022/05/29 02:38:19;;;;;;;12.10;5.10;;;;;;;18.00;94.67;94276.53;5033593;28;20175;-80
2022/05/29 02:40:54;;;;;;;10.10;5.65;;;;;;;17.96;94.94;94274.69;5033793;28;20538;-80
2022/05/29 02:43:44;;;;;;;13.48;5.65;;;;;;;17.95;95.59;94284.56;5033892;28;20543;-80
2022/05/29 02:46:13;;;;;;;12.60;4.93;;;;;;;17.92;95.77;94282.41;5034005;28;20207;-80
2022/05/29 02:48:57;;;;;;;9.65;5.13;;;;;;;17.93;95.31;94273.38;5034207;28;20185;-80
2022/05/29 02:51:50;;;;;;;7.72;3.72;;;;;;;17.93;93.23;94270.69;5025757;28;20184;-80
2022/05/29 02:54:27;;;;;;;7.85;3.95;;;;;;;17.77;93.19;94249.69;5033695;28;20179;-80
2022/05/29 02:56:53;;;;;;;9.02;4.28;;;;;;;17.88;91.72;94257.41;5033629;28;20259;-80
2022/05/29 02:59:22;;;;;;;12.07;3.75;;;;;;;17.84;89.99;94260.88;5033532;28;20203;-80
2022/05/29 03:01:50;;;;;;;8.65;3.60;;;;;;;17.80;90.83;94257.16;5033387;28;20168;-80
2022/05/29 03:04:43;;;;;;;10.38;3.70;;;;;;;17.73;91.13;94250.22;5025016;28;20184;-80
2022/05/29 03:07:08;;;;;;;7.90;3.33;;;;;;;17.57;90.54;94240.66;5015716;28;20274;-80
2022/05/29 03:09:36;;;;;;;24.58;3.97;;;;;;;17.44;91.35;94241.22;5015697;28;20266;-80
2022/05/29 03:12:12;;;;;;;8.40;3.95;;;;;;;17.21;92.02;94210.63;5033625;28;20555;-80
2022/05/29 03:14:49;;;;;;;10.23;3.40;;;;;;;17.35;92.25;94232.97;5033029;28;20175;-80
2022/05/29 03:17:24;;;;;;;7.90;3.65;;;;;;;17.32;92.16;94232.72;5033305;28;20171;-80
2022/05/29 03:20:02;;;;;;;7.45;4.25;;;;;;;17.36;92.87;94228.47;5033199;28;20238;-80
2022/05/29 03:22:34;;;;;;;10.68;4.72;;;;;;;17.42;93.18;94222.06;5015437;28;20225;-79
2022/05/29 03:25:04;;;;;;;13.35;6.68;;;;;;;17.37;93.28;94194.66;5034449;28;20176;-79
2022/05/29 03:27:45;;;;;;;11.40;4.97;;;;;;;17.49;93.65;94217.25;5033099;28;20227;-81
2022/05/29 03:30:28;;;;;;;10.27;5.25;;;;;;;17.47;94.39;94229.25;5025168;28;20226;-81
2022/05/29 03:32:57;;;;;;;11.98;5.90;;;;;;;17.43;95.10;94230.84;5032898;28;20183;-81
2022/05/29 03:35:32;;;;;;;9.57;4.88;;;;;;;17.48;95.93;94223.63;5032784;28;20187;-80
2022/05/29 03:38:00;;;;;;;10.50;5.30;;;;;;;17.56;95.97;94220.44;5033213;28;20262;-80
2022/05/29 03:40:28;;;;;;;10.38;4.68;;;;;;;17.60;95.00;94221.50;5032691;28;20250;-79
2022/05/29 03:42:54;;;;;;;9.57;5.40;;;;;;;17.51;94.71;94217.78;5032928;28;20188;-79
2022/05/29 03:45:20;;;;;;;14.63;5.28;;;;;;;17.50;95.30;94215.38;5032902;28;20678;-80
2022/05/29 03:47:46;;;;;;;8.30;5.30;;;;;;;17.50;95.99;94207.41;5032881;28;20174;-80
2022/05/29 03:50:14;;;;;;;18.25;8.80;;;;;;;17.56;95.03;94222.28;5032605;28;20172;-80
2022/05/29 03:52:39;;;;;;;9.30;5.13;;;;;;;17.34;94.45;94188.81;5014783;28;20179;-79
2022/05/29 03:55:06;;;;;;;20.42;7.45;;;;;;;17.37;94.30;94224.75;5032587;28;20297;-80
2022/05/29 03:57:32;;;;;;;12.88;5.47;;;;;;;17.30;94.37;94206.38;5032747;28;20164;-79
2022/05/29 03:59:57;;;;;;;9.63;4.85;;;;;;;17.02;93.99;94160.94;5032409;28;20567;-80
2022/05/29 04:02:23;;;;;;;11.45;5.80;;;;;;;17.33;93.75;94192.53;5032765;28;20172;-80
2022/05/29 04:04:48;;;;;;;7.93;4.00;;;;;;;17.55;92.28;94197.56;5032507;28;20179;-79
2022/05/29 04:07:14;;;;;;;11.95;5.80;;;;;;;17.58;91.64;94199.66;5032199;28;20195;-79
2022/05/29 04:12:23;;;;;;;7.90;4.60;;;;;;;17.79;92.20;94191.66;5032409;28;20175;-80
2022/05/29 04:14:48;;;;;;;16.70;5.32;;;;;;;17.88;90.96;94208.66;5032465;28;20184;-80
2022/05/29 04:17:16;;;;;;;9.70;4.25;;;;;;;17.86;91.43;94205.47;5032355;28;20200;-80
2022/05/29 04:19:44;;;;;;;11.55;4.95;;;;;;;17.90;92.41;94201.22;5031967;28;20203;-79
2022/05/29 04:22:14;;;;;;;11.18;6.72;;;;;;;18.04;90.88;94200.34;5032133;28;20298;-79
2022/05/29 04:24:39;;;;;;;11.82;4.47;;;;;;;18.11;89.69;94208.03;5032485;28;20226;-79
2022/05/29 04:27:08;;;;;;;12.23;5.18;;;;;;;18.22;90.57;94206.13;5031912;28;20239;-79
2022/05/29 04:29:34;;;;;;;9.07;4.75;;;;;;;18.37;91.55;94184.72;5032278;28;20183;-80
2022/05/29 04:34:44;;;;;;;14.82;4.38;;;;;;;19.14;86.38;94201.81;5031764;28;20271;-80
2022/05/29 04:37:09;;;;;;;15.13;5.28;;;;;;;19.43;86.07;94215.97;5031850;28;20631;-80
2022/05/29 04:39:36;;;;;;;15.50;5.78;;;;;;;19.65;85.09;94204.03;5032146;28;20722;-80
2022/05/29 04:42:03;;;;;;;11.73;3.88;;;;;;;19.75;82.66;94194.03;5031827;28;20176;-80
2022/05/29 04:44:30;;;;;;;7.82;4.55;;;;;;;19.95;81.50;94214.41;5032066;28;20718;-80
2022/05/29 04:46:58;;;;;;;5.85;4.38;;;;;;;20.06;81.15;94233.78;5031710;28;20186;-80
2022/05/29 04:49:23;;;;;;;10.52;3.92;;;;;;;20.18;82.74;94226.94;5031670;28;20234;-80
2022/05/29 04:51:49;;;;;;;7.93;4.20;;;;;;;20.26;81.61;94210.28;5031734;28;20635;-79
2022/05/29 04:54:14;;;;;;;11.60;3.75;;;;;;;20.52;81.28;94237.50;5031788;28;20562;-80
2022/05/29 04:56:39;;;;;;;8.52;4.47;;;;;;;20.64;80.55;94224.50;5031793;28;20548;-79
2022/05/29 04:59:05;;;;;;;8.73;3.42;;;;;;;20.59;76.77;94207.72;5031754;28;20238;-80
2022/05/29 05:01:30;;;;;;;7.07;3.60;;;;;;;20.78;75.61;94224.56;5031446;28;20573;-79
2022/05/29 05:03:55;;;;;;;10.80;3.45;;;;;;;20.92;75.83;94200.56;5013863;28;20179;-79
2022/05/29 05:06:21;;;;;;;5.50;3.53;;;;;;;21.14;75.76;94213.34;5031509;28;20222;-80
2022/05/29 05:08:46;;;;;;;17.85;6.25;;;;;;;21.24;74.48;94205.19;5031219;28;20168;-80
2022/05/29 05:11:12;;;;;;;8.75;4.03;;;;;;;21.45;73.38;94222.47;5030987;28;21052;-81
2022/05/29 05:13:37;;;;;;;7.57;3.05;;;;;;;21.55;72.42;94230.34;5010416;28;20183;-82
2022/05/29 05:16:04;;;;;;;10.68;4.78;;;;;;;21.03;73.33;94188.59;5028592;28;20188;-82
2022/05/29 05:18:30;;;;;;;6.95;3.40;;;;;;;20.80;74.43;94198.34;5032079;28;20221;-82
2022/05/29 05:20:55;;;;;;;6.65;3.50;;;;;;;20.85;76.05;94221.53;5031615;28;20156;-82
2022/05/29 05:23:21;;;;;;;7.85;3.78;;;;;;;20.52;77.84;94202.75;5032023;28;20627;-81
2022/05/29 05:25:46;;;;;;;15.13;5.15;;;;;;;20.65;78.47;94214.63;5031360;28;20190;-81
2022/05/29 05:28:12;;;;;;;6.57;3.05;;;;;;;20.17;76.91;94195.16;5031738;28;20160;-82
2022/05/29 05:30:37;;;;;;;55.92;35.00;;;;;;;19.79;76.44;94221.78;5031501;28;20160;-82
2022/05/29 05:33:03;;;;;;;8.40;3.38;;;;;;;19.43;77.73;94169.78;5031554;28;20187;-82
2022/05/29 05:35:28;;;;;;;8.18;2.80;;;;;;;19.73;77.09;94211.41;5032005;28;20207;-82
2022/05/29 05:37:54;;;;;;;8.15;3.42;;;;;;;19.42;77.95;94211.72;5031817;28;20262;-81
2022/05/29 05:40:20;;;;;;;6.65;2.83;;;;;;;19.35;79.17;94205.91;5030824;28;20249;-82
2022/05/29 05:42:45;;;;;;;11.77;3.35;;;;;;;19.26;80.19;94170.22;5031074;28;20175;-82
2022/05/29 05:45:12;;;;;;;6.53;3.05;;;;;;;19.71;78.86;94213.59;5031260;28;20207;-82
2022/05/29 05:47:38;;;;;;;12.23;3.35;;;;;;;19.82;78.80;94213.19;5033945;28;20608;-79
2022/05/29 05:50:05;;;;;;;5.78;3.20;;;;;;;19.92;76.94;94226.44;5034571;28;20175;-79
2022/05/29 05:52:30;;;;;;;6.65;3.00;;;;;;;20.05;77.03;94216.97;5034410;28;20176;-79
2022/05/29 05:54:56;;;;;;;11.85;4.05;;;;;;;19.89;76.25;94223.56;5034319;28;20183;-79
2022/05/29 05:57:21;;;;;;;6.20;2.90;;;;;;;19.70;76.67;94179.97;5034074;28;20179;-78
2022/05/29 05:59:47;;;;;;;12.13;3.83;;;;;;;19.98;77.70;94186.31;5016507;28;20589;-79
2022/05/29 06:02:13;;;;;;;7.90;3.03;;;;;;;20.25;76.64;94207.88;5015111;28;20164;-79
2022/05/29 06:04:40;;;;;;;9.63;2.83;;;;;;;20.70;77.11;94212.66;5034426;28;20175;-79
2022/05/29 06:07:06;;;;;;;6.90;3.05;;;;;;;21.23;73.15;94208.94;5034170;28;20179;-79
2022/05/29 06:09:32;;;;;;;6.57;2.80;;;;;;;21.48;71.45;94221.09;5034403;28;20322;-79
2022/05/29 06:11:57;;;;;;;10.38;2.83;;;;;;;22.24;71.72;94214.34;5034427;28;20187;-79
2022/05/29 06:14:23;;;;;;;1999.90;999.90;;;;;;;22.62;67.88;94202.28;5034783;28;20175;-80
2022/05/29 06:16:48;;;;;;;1999.90;999.90;;;;;;;22.98;66.89;94213.03;5034053;28;20172;-79
2022/05/29 06:19:14;;;;;;;133.90;124.03;;;;;;;23.40;69.44;94214.44;5033784;28;20204;-80
2022/05/29 06:21:39;;;;;;;240.07;220.60;;;;;;;23.55;65.42;94202.53;5034195;28;20234;-80
2022/05/29 06:24:06;;;;;;;39.70;36.80;;;;;;;23.41;65.08;94205.28;5013000;28;20682;-80
2022/05/29 06:26:31;;;;;;;10.60;3.22;;;;;;;23.22;64.75;94210.06;5013215;28;20698;-80
2022/05/29 06:28:58;;;;;;;11.13;3.58;;;;;;;22.66;67.29;94205.94;5033783;28;20203;-80
2022/05/29 06:31:24;;;;;;;11.23;3.15;;;;;;;22.89;69.14;94193.38;5033675;28;20175;-80
2022/05/29 06:33:50;;;;;;;8.10;2.63;;;;;;;23.12;65.52;94191.50;5033889;28;20611;-80
2022/05/29 06:36:23;;;;;;;6.53;3.10;;;;;;;23.29;65.63;94188.94;5033644;28;20233;-80
2022/05/29 06:38:49;;;;;;;10.80;3.47;;;;;;;23.35;66.70;94174.28;5033513;28;20633;-80
2022/05/29 06:41:17;;;;;;;9.80;2.90;;;;;;;23.22;66.46;94142.91;5033450;28;20270;-80
2022/05/29 06:43:42;;;;;;;11.30;3.75;;;;;;;23.39;63.77;94171.75;5033670;28;20168;-80
2022/05/29 06:46:12;;;;;;;12.40;3.25;;;;;;;23.23;62.54;94187.47;5033554;28;20544;-80
2022/05/29 06:48:38;;;;;;;7.28;2.42;;;;;;;23.12;63.96;94189.59;5033438;28;20168;-80
2022/05/29 06:51:24;;;;;;;7.85;2.67;;;;;;;22.98;62.83;94140.56;5033836;28;20187;-80
2022/05/29 06:53:52;;;;;;;9.70;2.60;;;;;;;23.43;63.47;94170.06;5033408;28;20643;-80
2022/05/29 06:56:19;;;;;;;9.15;2.30;;;;;;;23.69;61.53;94174.50;5033915;28;20160;-80
2022/05/29 06:58:45;;;;;;;9.10;2.33;;;;;;;23.86;61.40;94183.75;5033337;28;20199;-81
2022/05/29 07:07:00;;;;;;;8.68;2.95;;;;;;;23.86;60.03;94148.78;5033152;28;20171;-81
2022/05/29 07:09:30;;;;;;;5.50;2.63;;;;;;;24.11;59.72;94158.84;5015882;28;20617;-81
2022/05/29 07:12:14;;;;;;;8.55;2.50;;;;;;;24.26;58.45;94169.19;5032742;28;20222;-80
2022/05/29 07:14:50;;;;;;;8.50;2.65;;;;;;;24.24;59.29;94152.56;5030624;28;20206;-80
2022/05/29 07:17:15;;;;;;;6.60;2.58;;;;;;;23.98;59.02;94132.84;5032609;28;20178;-80
2022/05/29 07:19:41;;;;;;;5.68;2.38;;;;;;;24.15;58.66;94148.22;5031806;28;20192;-81
2022/05/29 07:22:07;;;;;;;15.02;3.42;;;;;;;24.18;59.81;94161.84;5033158;28;20180;-80
2022/05/29 07:24:35;;;;;;;8.25;2.22;;;;;;;24.17;58.52;94135.25;5030382;28;20184;-79
2022/05/29 07:27:01;;;;;;;5.03;2.63;;;;;;;24.19;57.78;94154.56;5023832;28;20278;-83
2022/05/29 07:29:26;;;;;;;6.35;2.20;;;;;;;24.44;58.51;94167.31;5025362;28;20570;-78
2022/05/29 07:31:53;;;;;;;6.10;2.50;;;;;;;24.45;57.70;94166.22;5025989;28;20176;-78
2022/05/29 07:34:19;;;;;;;6.32;2.63;;;;;;;24.37;58.66;94140.09;5024592;28;20184;-79
2022/05/29 07:36:45;;;;;;;11.20;2.42;;;;;;;24.56;57.51;94135.16;5024392;28;20180;-80
2022/05/29 07:39:13;;;;;;;9.75;2.70;;;;;;;24.78;57.12;94161.16;5028532;28;20691;-79
2022/05/29 07:44:23;;;;;;;7.22;2.60;;;;;;;24.46;57.23;94156.25;5031918;28;20186;-79
2022/05/29 07:46:48;;;;;;;6.65;1.95;;;;;;;24.59;56.76;94150.69;5019454;28;20267;-79
2022/05/29 07:49:14;;;;;;;6.93;2.75;;;;;;;24.68;55.98;94158.78;5029247;28;20218;-79
2022/05/29 07:51:39;;;;;;;10.70;2.13;;;;;;;24.76;57.11;94147.22;5030947;28;20215;-79
2022/05/29 07:54:05;;;;;;;12.63;2.75;;;;;;;24.40;55.03;94160.97;5035939;28;20639;-80
2022/05/29 07:56:30;;;;;;;11.75;2.58;;;;;;;24.32;56.76;94154.47;5027450;28;20660;-80
2022/05/29 07:58:55;;;;;;;5.13;2.17;;;;;;;24.58;56.31;94156.41;5027033;28;20679;-78
2022/05/29 08:01:22;;;;;;;8.93;2.55;;;;;;;24.60;57.27;94130.75;5008260;28;20184;-80
2022/05/29 08:03:48;;;;;;;7.38;2.17;;;;;;;24.79;56.14;94125.06;5030000;28;20175;-80
2022/05/29 08:06:14;;;;;;;9.23;2.50;;;;;;;24.88;55.61;94146.59;5026153;28;20198;-81
2022/05/29 08:08:42;;;;;;;5.97;1.90;;;;;;;25.07;54.80;94157.88;5023818;28;20890;-81
2022/05/29 08:11:17;;;;;;;5.63;2.40;;;;;;;24.89;55.17;94111.28;5031657;28;20191;-80
2022/05/29 08:13:44;;;;;;;8.70;3.53;;;;;;;25.38;54.98;94109.13;5018954;28;20591;-82
2022/05/29 08:16:10;;;;;;;8.75;2.33;;;;;;;25.40;55.44;94128.47;5028033;28;20176;-80
2022/05/29 08:18:36;;;;;;;5.72;2.45;;;;;;;24.87;56.62;94143.09;5025699;28;20226;-82
2022/05/29 08:21:03;;;;;;;10.80;2.55;;;;;;;24.77;56.54;94117.28;5026718;28;20171;-83
2022/05/29 08:23:28;;;;;;;5.75;2.38;;;;;;;24.67;55.64;94133.75;5024520;28;20176;-78
2022/05/29 08:31:23;;;;;;;6.20;1.85;;;;;;;24.89;55.98;94123.94;5018591;28;20257;-76
2022/05/29 08:33:48;;;;;;;7.95;2.72;;;;;;;24.97;55.53;94123.97;5003375;28;20184;-77
2022/05/29 08:36:24;;;;;;;6.40;2.15;;;;;;;25.10;54.83;94090.66;5030084;28;20258;-79
2022/05/29 08:38:52;;;;;;;5.38;2.33;;;;;;;25.33;54.54;94112.03;5012931;28;20592;-80
2022/05/29 08:41:43;;;;;;;6.75;2.30;;;;;;;25.23;54.38;94115.06;5012833;28;20171;-81
2022/05/29 08:44:23;;;;;;;12.98;2.20;;;;;;;25.22;54.63;94119.66;5003307;28;20647;-78
2022/05/29 08:46:52;;;;;;;5.70;2.10;;;;;;;24.91;54.42;94078.66;5030573;28;20176;-78
2022/05/29 08:49:31;;;;;;;13.13;2.83;;;;;;;24.89;54.92;94072.78;5030803;28;20183;-79
2022/05/29 08:52:23;;;;;;;9.02;2.47;;;;;;;25.21;54.78;94098.41;5030744;28;20179;-79
2022/05/29 08:54:51;;;;;;;7.40;2.00;;;;;;;25.28;54.09;94079.84;5034527;28;20168;-78
2022/05/29 08:57:40;;;;;;;9.80;4.03;;;;;;;25.57;54.20;94101.47;5031298;28;20188;-78
2022/05/29 09:00:27;;;;;;;9.38;2.67;;;;;;;25.74;54.10;94106.81;5033238;28;20285;-78
2022/05/29 09:03:08;;;;;;;7.45;2.60;;;;;;;25.31;53.48;94087.28;5030961;28;20228;-78
2022/05/29 09:05:40;;;;;;;15.13;4.05;;;;;;;25.54;53.33;94077.84;5027966;28;20560;-79
2022/05/29 09:08:13;;;;;;;16.92;2.60;;;;;;;25.49;52.46;94067.25;5004581;28;20214;-79
2022/05/29 09:10:49;;;;;;;8.23;2.35;;;;;;;25.81;51.56;94071.25;5017882;28;20655;-79
2022/05/29 09:13:46;;;;;;;9.35;2.72;;;;;;;25.85;50.28;94075.69;4997483;28;20784;-80
2022/05/29 09:16:19;;;;;;;6.88;2.13;;;;;;;25.90;49.52;94077.38;5021876;28;20267;-79
2022/05/29 09:19:06;;;;;;;9.43;3.92;;;;;;;25.53;50.85;94066.25;5028536;28;20215;-80
2022/05/29 09:21:49;;;;;;;11.25;2.40;;;;;;;25.21;51.25;94017.56;5026919;28;20239;-79
2022/05/29 09:24:26;;;;;;;10.82;2.78;;;;;;;25.58;51.08;94059.91;5033226;28;20179;-79
2022/05/29 09:26:52;;;;;;;12.60;2.97;;;;;;;25.78;50.71;94061.91;5030992;28;20613;-80
2022/05/29 09:29:18;;;;;;;5.72;2.10;;;;;;;25.79;50.92;94060.00;5034923;28;20172;-80
2022/05/29 09:31:43;;;;;;;8.23;3.33;;;;;;;25.36;50.32;94039.38;5025501;28;20261;-78
2022/05/29 09:34:08;;;;;;;9.07;2.25;;;;;;;25.29;50.91;94052.56;5033853;28;20217;-78
2022/05/29 09:36:41;;;;;;;9.93;2.50;;;;;;;25.28;52.04;94045.59;5033815;28;20661;-79
2022/05/29 09:39:36;;;;;;;11.63;2.58;;;;;;;25.47;52.03;94054.09;5027824;28;20206;-79
2022/05/29 09:42:08;;;;;;;8.27;2.47;;;;;;;24.96;51.81;94046.97;5023773;28;20181;-79
2022/05/29 09:44:33;;;;;;;10.68;2.40;;;;;;;24.77;52.95;94046.50;5034096;28;20206;-78
2022/05/29 09:49:43;;;;;;;5.03;2.10;;;;;;;24.60;53.77;94033.84;5027338;28;20174;-79
2022/05/29 09:52:37;;;;;;;8.57;2.20;;;;;;;24.85;53.56;94048.38;5025856;28;20595;-79
2022/05/29 09:55:31;;;;;;;8.57;2.63;;;;;;;24.84;53.11;94044.09;5028799;28;20196;-78
2022/05/29 09:58:01;;;;;;;12.45;3.45;;;;;;;24.76;53.69;94005.31;5028871;28;20187;-79
2022/05/29 10:00:37;;;;;;;13.73;3.03;;;;;;;25.07;55.31;94025.88;5031133;28;20199;-79
2022/05/29 10:03:06;;;;;;;9.18;2.50;;;;;;;25.24;53.71;94011.56;5033467;28;20179;-79
2022/05/29 10:05:39;;;;;;;12.82;2.33;;;;;;;24.94;53.12;93992.63;5020950;28;20693;-80
2022/05/29 10:08:31;;;;;;;7.57;2.30;;;;;;;25.01;53.77;94022.53;5023511;28;20184;-79
2022/05/29 10:11:27;;;;;;;8.18;2.75;;;;;;;24.97;54.03;94008.16;5026915;28;20187;-80
2022/05/29 10:13:52;;;;;;;11.90;2.83;;;;;;;24.88;53.54;93983.13;5021840;28;20179;-80
2022/05/29 10:16:29;;;;;;;8.35;3.05;;;;;;;25.25;54.08;94010.44;5032428;28;20175;-79
2022/05/29 10:18:55;;;;;;;5.88;2.67;;;;;;;25.26;54.44;94003.91;5032177;28;20239;-79
2022/05/29 10:21:28;;;;;;;7.10;2.22;;;;;;;25.52;53.94;94001.88;5033084;28;20730;-79
2022/05/29 10:24:09;;;;;;;5.35;2.50;;;;;;;25.39;54.82;93987.53;5030102;28;20184;-78
2022/05/29 10:26:36;;;;;;;8.10;3.65;;;;;;;25.60;53.88;94003.78;5028114;28;20227;-79
2022/05/29 10:29:17;;;;;;;17.55;2.80;;;;;;;25.36;53.55;93990.09;5025987;28;20230;-79
2022/05/29 10:31:48;;;;;;;9.20;2.78;;;;;;;24.97;53.52;93981.22;5027325;28;20271;-79
2022/05/29 10:34:30;;;;;;;21.85;3.22;;;;;;;24.80;54.18;93997.41;5030225;28;20553;-79
2022/05/29 10:36:56;;;;;;;11.57;2.85;;;;;;;24.70;55.09;93998.53;5006586;28;20176;-79
2022/05/29 10:39:31;;;;;;;13.65;3.17;;;;;;;24.54;55.31;93994.75;5030734;28;20272;-79
2022/05/29 10:41:58;;;;;;;14.65;2.95;;;;;;;24.50;55.87;93984.94;5031436;28;20222;-79
2022/05/29 10:44:42;;;;;;;7.35;2.45;;;;;;;24.39;55.79;94020.25;5022908;28;20199;-78
2022/05/29 10:47:17;;;;;;;11.68;3.10;;;;;;;24.27;56.60;94012.03;5029784;28;20190;-79
2022/05/29 10:50:15;;;;;;;10.07;2.65;;;;;;;24.29;56.85;94009.81;5021862;28;20175;-78
2022/05/29 10:52:54;;;;;;;8.95;3.25;;;;;;;24.22;56.52;94004.09;5021335;28;20195;-78
2022/05/29 10:55:47;;;;;;;11.48;3.22;;;;;;;24.11;57.24;93991.28;5029631;28;20563;-78
2022/05/29 10:58:22;;;;;;;10.63;3.30;;;;;;;24.01;58.06;93984.31;5025582;28;20178;-78
2022/05/29 11:03:17;;;;;;;11.65;3.28;;;;;;;23.94;58.76;93984.00;5024096;28;20191;-78
2022/05/29 11:04:11;;;;;;;6.20;2.50;;;;;;;23.69;59.66;93935.28;5023023;28;20188;-79
2022/05/29 11:06:42;;;;;;;8.57;2.63;;;;;;;23.88;59.69;93971.78;5021116;28;20188;-82
2022/05/29 11:09:29;;;;;;;9.65;2.58;;;;;;;23.96;59.18;93968.31;5003663;28;20191;-79
2022/05/29 11:12:31;;;;;;;6.60;3.20;;;;;;;23.99;59.66;93955.03;5021767;28;20186;-78
2022/05/29 11:15:02;;;;;;;8.70;3.13;;;;;;;24.24;58.48;93958.84;5009245;28;20275;-78
2022/05/29 11:17:31;;;;;;;15.60;4.00;;;;;;;24.30;59.29;93951.44;5025603;28;20186;-80
2022/05/29 11:20:17;;;;;;;10.35;2.75;;;;;;;24.53;58.90;93944.72;5023142;28;20285;-78
2022/05/29 11:23:16;;;;;;;9.50;2.42;;;;;;;24.81;57.76;93939.75;5016695;28;20187;-79
2022/05/29 11:25:49;;;;;;;11.73;3.35;;;;;;;24.98;56.83;93938.91;5029956;28;20578;-78
2022/05/29 11:28:14;;;;;;;6.45;3.35;;;;;;;24.88;57.09;93937.34;5034368;28;20232;-78
2022/05/29 11:31:07;;;;;;;6.78;2.55;;;;;;;25.00;58.74;93915.13;5042022;28;20206;-78
2022/05/29 11:33:48;;;;;;;12.38;3.67;;;;;;;25.06;57.87;93920.03;5036963;28;20179;-79
2022/05/29 11:36:16;;;;;;;9.10;3.17;;;;;;;24.90;57.18;93918.16;5031349;28;20175;-78
2022/05/29 11:38:47;;;;;;;10.18;2.60;;;;;;;24.61;57.26;93887.38;5019003;28;20735;-80
2022/05/29 11:41:20;;;;;;;9.40;2.53;;;;;;;24.73;58.19;93882.13;5028940;28;20211;-79
2022/05/29 11:43:52;;;;;;;10.88;3.78;;;;;;;24.82;57.77;93845.16;5017854;28;20176;-79
2022/05/29 11:52:38;;;;;;;32.85;3.30;;;;;;;24.74;56.75;93869.44;5019460;28;20194;-81
2022/05/29 11:55:14;;;;;;;12.38;3.38;;;;;;;24.63;58.01;93835.94;5002598;28;20184;-79
2022/05/29 11:57:58;;;;;;;6.68;3.58;;;;;;;24.77;57.95;93863.41;5014520;28;20193;-79
2022/05/29 12:00:33;;;;;;;5.80;3.55;;;;;;;24.73;58.29;93851.72;5016751;28;20188;-79
2022/05/29 12:03:04;;;;;;;10.63;3.83;;;;;;;24.76;58.71;93876.09;4998387;28;20586;-77
2022/05/29 12:05:51;;;;;;;7.70;3.40;;;;;;;24.62;59.04;93845.13;5012388;28;20187;-78
2022/05/29 12:08:24;;;;;;;7.88;2.97;;;;;;;24.43;59.09;93845.50;5021496;28;20176;-78
2022/05/29 12:11:18;;;;;;;12.32;3.50;;;;;;;24.40;58.76;93838.84;5023096;28;20172;-78
2022/05/29 12:14:13;;;;;;;11.80;3.40;;;;;;;24.33;59.43;93865.47;5029876;28;20171;-77
2022/05/29 12:16:44;;;;;;;11.38;3.65;;;;;;;24.32;60.37;93833.50;5012969;28;20247;-76
2022/05/29 12:19:18;;;;;;;6.85;3.05;;;;;;;24.54;59.62;93841.34;5030268;28;20266;-76
2022/05/29 12:21:54;;;;;;;12.35;3.90;;;;;;;24.67;59.54;93818.00;5021924;28;20700;-77
2022/05/29 12:24:25;;;;;;;5.55;3.35;;;;;;;24.73;59.46;93809.44;5017498;28;20214;-78